createdAt,value
2023-05-09T04:00:30.839Z,11.70
2023-05-09T04:05:30.664Z,14.30
2023-05-09T04:10:30.645Z,13.90
2023-05-09T04:15:30.556Z,13.70
2023-05-09T04:20:30.656Z,14.30
2023-05-09T04:25:30.494Z,14.00
2023-05-09T04:30:30.456Z,12.80
2023-05-09T04:35:30.464Z,13.80
2023-05-09T04:40:30.434Z,13.10
2023-05-09T04:45:30.229Z,13.30
2023-05-09T04:50:30.173Z,14.10
2023-05-09T04:55:30.144Z,13.30
2023-05-09T05:00:30.202Z,14.10
2023-05-09T05:05:30.292Z,14.00
2023-05-09T05:10:29.960Z,13.20
2023-05-09T05:15:29.903Z,13.50
2023-05-09T05:20:30.016Z,14.00
2023-05-09T05:25:29.831Z,13.20
2023-05-09T05:30:30.722Z,13.90
2023-05-09T05:35:29.709Z,12.70
2023-05-09T05:40:29.749Z,12.90
2023-05-09T05:45:29.597Z,12.80
2023-05-09T05:50:29.511Z,12.60
2023-05-09T05:55:29.482Z,13.30
2023-05-09T06:00:29.672Z,12.70
2023-05-09T06:05:29.378Z,13.00
2023-05-09T06:10:29.396Z,12.00
2023-05-09T06:15:29.259Z,12.00
2023-05-09T06:20:29.325Z,12.10
2023-05-09T06:25:29.124Z,11.40
2023-05-09T06:30:29.169Z,11.60
2023-05-09T06:35:29.028Z,11.20
2023-05-09T06:40:29.132Z,10.90
2023-05-09T06:45:28.927Z,10.20
2023-05-09T06:50:31.470Z,10.40
2023-05-09T06:55:28.786Z,9.90
2023-05-09T07:00:28.892Z,9.90
2023-05-09T07:05:28.751Z,9.50
2023-05-09T07:10:28.661Z,10.00
2023-05-09T07:15:40.306Z,9.50
2023-05-09T07:20:29.777Z,8.60
2023-05-09T07:25:28.474Z,8.70
2023-05-09T07:30:28.494Z,8.00
2023-05-09T07:35:28.387Z,7.40
2023-05-09T07:40:28.448Z,6.90
2023-05-09T07:45:28.354Z,6.60
2023-05-09T07:50:28.194Z,6.20
2023-05-09T07:55:28.157Z,5.10
2023-05-09T08:00:28.227Z,5.10
2023-05-09T08:05:28.043Z,5.50
2023-05-09T08:10:28.031Z,5.00
2023-05-09T08:15:27.953Z,4.80
2023-05-09T08:20:28.034Z,4.80
2023-05-09T08:25:27.811Z,4.50
2023-05-09T08:30:27.768Z,5.40
2023-05-09T08:35:27.744Z,5.20
2023-05-09T08:40:27.815Z,5.00
2023-05-09T08:45:27.627Z,5.50
2023-05-09T08:50:27.588Z,4.60
2023-05-09T08:55:27.519Z,4.30
2023-05-09T09:00:28.046Z,4.40
2023-05-09T09:05:40.796Z,4.60
2023-05-09T09:10:28.378Z,3.70
2023-05-09T09:15:27.296Z,3.60
2023-05-09T09:20:27.371Z,3.60
2023-05-09T09:25:27.166Z,3.40
2023-05-09T09:30:27.161Z,3.50
2023-05-09T09:35:27.058Z,2.60
2023-05-09T09:40:27.166Z,3.40
2023-05-09T09:45:27.001Z,2.60
2023-05-09T09:50:26.943Z,2.60
2023-05-09T09:55:26.858Z,2.00
2023-05-09T10:00:26.923Z,2.00
2023-05-09T10:05:26.971Z,1.70
2023-05-09T10:10:26.703Z,1.80
2023-05-09T10:15:45.142Z,1.70
2023-05-09T10:20:27.579Z,1.30
2023-05-09T10:25:26.563Z,1.40
2023-05-09T10:30:26.474Z,1.30
2023-05-09T10:35:26.590Z,1.60
2023-05-09T10:40:26.440Z,1.50
2023-05-09T10:45:26.321Z,2.10
2023-05-09T10:50:26.286Z,2.10
2023-05-09T10:55:26.319Z,2.10
2023-05-09T11:00:26.182Z,1.70
2023-05-09T11:05:26.093Z,2.10
2023-05-09T11:10:26.051Z,2.00
2023-05-09T11:15:26.132Z,2.00
2023-05-09T11:20:25.946Z,1.90
2023-05-09T11:25:25.906Z,2.20
2023-05-09T11:30:25.862Z,2.30
2023-05-09T11:35:25.911Z,2.10
2023-05-09T11:40:25.741Z,2.10
2023-05-09T11:45:25.690Z,1.90
2023-05-09T11:50:25.641Z,1.90
2023-05-09T11:55:25.945Z,1.70
2023-05-09T12:00:25.508Z,1.50
2023-05-09T12:05:25.460Z,1.90
2023-05-09T12:10:25.407Z,2.00
2023-05-09T12:15:25.375Z,1.60
2023-05-09T12:20:25.313Z,1.90
2023-05-09T12:25:25.318Z,1.60
2023-05-09T12:30:25.194Z,1.80
2023-05-09T12:35:25.280Z,1.80
2023-05-09T12:40:25.092Z,1.70
2023-05-09T12:45:25.044Z,2.00
2023-05-09T12:50:24.973Z,2.30
2023-05-09T12:55:25.057Z,2.20
2023-05-09T13:00:24.873Z,1.90
2023-05-09T13:05:24.809Z,2.00
2023-05-09T13:10:25.035Z,1.80
2023-05-09T13:15:24.742Z,2.10
2023-05-09T13:20:24.658Z,1.90
2023-05-09T13:25:24.605Z,2.10
2023-05-09T13:30:24.554Z,1.90
2023-05-09T13:35:24.617Z,1.70
2023-05-09T13:40:24.481Z,1.70
2023-05-09T13:45:24.391Z,1.80
2023-05-09T13:50:24.340Z,1.90
2023-05-09T13:55:24.393Z,1.80
2023-05-09T14:00:24.226Z,1.70
2023-05-09T14:05:24.175Z,1.90
2023-05-09T14:10:24.135Z,1.80
2023-05-09T14:15:24.091Z,1.80
2023-05-09T14:20:24.020Z,1.90
2023-05-09T14:25:23.963Z,2.00
2023-05-09T14:30:23.905Z,4.50
2023-05-09T14:35:24.039Z,6.10
2023-05-09T14:40:23.794Z,6.40
2023-05-09T14:45:23.753Z,6.90
2023-05-09T14:50:23.686Z,8.00
2023-05-09T14:55:23.767Z,6.70
2023-05-09T15:00:23.938Z,7.30
2023-05-09T15:05:23.523Z,7.50
2023-05-09T15:10:23.464Z,7.60
2023-05-09T15:15:23.549Z,8.40
2023-05-09T15:20:23.365Z,6.40
2023-05-09T15:25:23.311Z,5.40
2023-05-09T15:30:23.289Z,5.50
2023-05-09T15:35:23.438Z,5.00
2023-05-09T15:40:23.149Z,5.00
2023-05-09T15:45:23.105Z,5.00
2023-05-09T15:50:23.040Z,4.90
2023-05-09T15:55:23.123Z,5.40
2023-05-09T16:00:22.941Z,5.50
2023-05-09T16:05:22.888Z,5.80
2023-05-09T16:10:22.831Z,6.30
2023-05-09T16:15:22.901Z,6.00
2023-05-09T16:20:29.805Z,6.50
2023-05-09T16:25:22.815Z,6.70
2023-05-09T16:30:22.613Z,6.60
2023-05-09T16:35:22.683Z,6.90
2023-05-09T16:40:22.508Z,6.60
2023-05-09T16:45:22.528Z,7.40
2023-05-09T16:50:22.406Z,7.20
2023-05-09T16:55:22.496Z,7.30
2023-05-09T17:00:22.315Z,7.30
2023-05-09T17:05:22.236Z,6.80
2023-05-09T17:10:22.208Z,7.10
2023-05-09T17:15:22.264Z,6.40
2023-05-09T17:20:22.084Z,6.90
2023-05-09T17:25:22.027Z,7.50
2023-05-09T17:30:23.239Z,7.00
2023-05-09T17:35:22.043Z,7.60
2023-05-09T17:40:21.955Z,7.10
2023-05-09T17:45:21.849Z,6.50
2023-05-09T17:50:21.760Z,7.40
2023-05-09T17:55:21.836Z,7.60
2023-05-09T18:00:21.654Z,6.80
2023-05-09T18:05:21.605Z,2.60
2023-05-09T18:10:21.561Z,1.30
2023-05-09T18:15:21.600Z,1.30
2023-05-09T18:20:21.443Z,0.70
2023-05-09T18:25:21.380Z,1.20
2023-05-09T18:30:21.350Z,1.30
2023-05-09T18:35:21.410Z,1.30
2023-05-09T18:40:21.316Z,1.10
2023-05-09T18:45:21.163Z,1.00
2023-05-09T18:50:21.100Z,0.90
2023-05-09T18:55:21.186Z,1.40
2023-05-09T19:00:21.005Z,1.30
2023-05-09T19:05:20.940Z,1.50
2023-05-09T19:10:20.911Z,1.60
2023-05-09T19:15:20.968Z,1.40
2023-05-09T19:20:20.778Z,1.30
2023-05-09T19:25:20.716Z,1.50
2023-05-09T19:30:20.669Z,1.60
2023-05-09T19:35:20.745Z,1.70
2023-05-09T19:40:20.553Z,1.10
2023-05-09T19:45:20.519Z,1.10
2023-05-09T19:50:20.457Z,0.90
2023-05-09T19:55:20.444Z,1.00
2023-05-09T20:00:20.337Z,1.30
2023-05-09T20:05:20.283Z,1.60
2023-05-09T20:10:20.231Z,1.50
2023-05-09T20:15:20.193Z,1.10
2023-05-09T20:20:20.117Z,0.80
2023-05-09T20:25:20.100Z,0.60
2023-05-09T20:30:20.004Z,0.40
2023-05-09T20:35:19.969Z,0.50
2023-05-09T20:40:19.908Z,1.00
2023-05-09T20:45:19.860Z,1.10
2023-05-09T20:50:19.801Z,1.10
2023-05-09T20:55:19.839Z,1.50
2023-05-09T21:00:19.677Z,1.40
2023-05-09T21:05:19.620Z,1.40
2023-05-09T21:10:19.574Z,1.80
2023-05-09T21:15:19.550Z,1.80
2023-05-09T21:20:19.465Z,2.30
2023-05-09T21:25:19.405Z,2.50
2023-05-09T21:30:19.354Z,2.00
2023-05-09T21:35:19.332Z,2.10
2023-05-09T21:40:19.237Z,2.40
2023-05-09T21:45:19.286Z,2.40
2023-05-09T21:50:19.158Z,2.60
2023-05-09T21:55:19.218Z,3.00
2023-05-09T22:00:19.143Z,2.90
2023-05-09T22:05:18.946Z,2.70
2023-05-09T22:10:18.985Z,3.20
2023-05-09T22:15:18.875Z,2.90
2023-05-09T22:20:19.043Z,2.90
2023-05-09T22:25:25.753Z,3.10
2023-05-09T22:30:18.809Z,3.40
2023-05-09T22:35:18.638Z,3.20
2023-05-09T22:40:18.653Z,3.50
2023-05-09T22:45:18.528Z,3.20
2023-05-09T22:50:18.638Z,3.30
2023-05-09T22:55:18.412Z,3.70
2023-05-09T23:00:18.504Z,3.50
2023-05-09T23:05:18.310Z,3.30
2023-05-09T23:10:18.579Z,3.70
2023-05-09T23:15:18.193Z,3.40
2023-05-09T23:20:18.454Z,3.20
2023-05-09T23:25:18.079Z,3.90
